sensor_id;sensor_type;location;lat;lon;timestamp;pressure;altitude;pressure_sealevel;temperature;humidity
64544;BME280;50936;51.660;5.616;2023-01-19T00:00:38;99727.44;;;1.65;100.00
64544;BME280;50936;51.660;5.616;2023-01-19T00:03:05;99730.28;;;1.62;100.00
64544;BME280;50936;51.660;5.616;2023-01-19T00:05:42;99722.59;;;1.56;100.00
64544;BME280;50936;51.660;5.616;2023-01-19T00:08:10;99716.66;;;1.50;100.00
64544;BME280;50936;51.660;5.616;2023-01-19T00:10:43;99714.28;;;1.44;100.00
64544;BME280;50936;51.660;5.616;2023-01-19T00:13:12;99710.06;;;1.40;100.00
64544;BME280;50936;51.660;5.616;2023-01-19T00:15:40;99703.19;;;1.36;100.00
64544;BME280;50936;51.660;5.616;2023-01-19T00:18:07;99715.84;;;1.31;100.00
64544;BME280;50936;51.660;5.616;2023-01-19T00:20:38;99721.59;;;1.22;100.00
64544;BME280;50936;51.660;5.616;2023-01-19T00:23:07;99719.16;;;1.17;100.00
64544;BME280;50936;51.660;5.616;2023-01-19T00:25:35;99723.63;;;1.17;100.00
64544;BME280;50936;51.660;5.616;2023-01-19T00:28:12;99720.03;;;1.18;100.00
64544;BME280;50936;51.660;5.616;2023-01-19T00:30:42;99720.19;;;1.14;100.00
64544;BME280;50936;51.660;5.616;2023-01-19T00:33:10;99723.75;;;1.13;100.00
64544;BME280;50936;51.660;5.616;2023-01-19T00:35:41;99728.22;;;1.13;100.00
64544;BME280;50936;51.660;5.616;2023-01-19T00:38:09;99726.59;;;1.10;100.00
64544;BME280;50936;51.660;5.616;2023-01-19T00:40:37;99733.00;;;1.06;100.00
64544;BME280;50936;51.660;5.616;2023-01-19T00:43:04;99734.78;;;1.06;100.00
64544;BME280;50936;51.660;5.616;2023-01-19T00:45:31;99725.88;;;1.07;100.00
64544;BME280;50936;51.660;5.616;2023-01-19T00:47:59;99720.31;;;1.11;100.00
64544;BME280;50936;51.660;5.616;2023-01-19T00:50:27;99727.38;;;1.12;100.00
64544;BME280;50936;51.660;5.616;2023-01-19T00:52:55;99721.09;;;1.13;100.00
64544;BME280;50936;51.660;5.616;2023-01-19T00:55:23;99721.91;;;1.15;100.00
64544;BME280;50936;51.660;5.616;2023-01-19T00:57:50;99721.91;;;1.15;100.00
64544;BME280;50936;51.660;5.616;2023-01-19T01:00:18;99719.34;;;1.14;100.00
64544;BME280;50936;51.660;5.616;2023-01-19T01:02:47;99719.41;;;1.12;100.00
64544;BME280;50936;51.660;5.616;2023-01-19T01:05:16;99722.06;;;1.12;100.00
64544;BME280;50936;51.660;5.616;2023-01-19T01:07:44;99718.44;;;1.13;100.00
64544;BME280;50936;51.660;5.616;2023-01-19T01:10:20;99722.06;;;1.12;100.00
64544;BME280;50936;51.660;5.616;2023-01-19T01:12:49;99709.69;;;1.11;100.00
64544;BME280;50936;51.660;5.616;2023-01-19T01:15:27;99727.44;;;1.11;100.00
64544;BME280;50936;51.660;5.616;2023-01-19T01:17:55;99730.81;;;1.14;100.00
64544;BME280;50936;51.660;5.616;2023-01-19T01:20:25;99730.81;;;1.14;100.00
64544;BME280;50936;51.660;5.616;2023-01-19T01:22:55;99735.13;;;1.17;100.00
64544;BME280;50936;51.660;5.616;2023-01-19T01:25:24;99742.88;;;1.22;100.00
64544;BME280;50936;51.660;5.616;2023-01-19T01:27:53;99748.06;;;1.25;100.00
64544;BME280;50936;51.660;5.616;2023-01-19T01:30:21;99742.75;;;1.25;100.00
64544;BME280;50936;51.660;5.616;2023-01-19T01:32:48;99739.28;;;1.23;100.00
64544;BME280;50936;51.660;5.616;2023-01-19T01:35:15;99739.38;;;1.21;100.00
64544;BME280;50936;51.660;5.616;2023-01-19T01:37:43;99732.38;;;1.19;100.00
64544;BME280;50936;51.660;5.616;2023-01-19T01:40:11;99734.25;;;1.17;100.00
64544;BME280;50936;51.660;5.616;2023-01-19T01:42:41;99737.78;;;1.17;100.00
64544;BME280;50936;51.660;5.616;2023-01-19T01:45:35;99737.88;;;1.15;100.00
64544;BME280;50936;51.660;5.616;2023-01-19T01:48:20;99727.25;;;1.15;100.00
64544;BME280;50936;51.660;5.616;2023-01-19T01:51:05;99729.09;;;1.13;100.00
64544;BME280;50936;51.660;5.616;2023-01-19T01:53:57;99742.38;;;1.13;100.00
64544;BME280;50936;51.660;5.616;2023-01-19T01:56:38;99735.28;;;1.14;100.00
64544;BME280;50936;51.660;5.616;2023-01-19T01:59:21;99743.63;;;1.06;100.00
64544;BME280;50936;51.660;5.616;2023-01-19T02:01:58;99744.34;;;0.91;100.00
64544;BME280;50936;51.660;5.616;2023-01-19T02:05:00;99730.72;;;0.80;100.00
64544;BME280;50936;51.660;5.616;2023-01-19T02:07:54;99741.47;;;0.76;100.00
64544;BME280;50936;51.660;5.616;2023-01-19T02:10:45;99737.19;;;0.74;100.00
64544;BME280;50936;51.660;5.616;2023-01-19T02:13:36;99750.66;;;0.69;100.00
64544;BME280;50936;51.660;5.616;2023-01-19T02:16:06;99750.94;;;0.63;100.00
64544;BME280;50936;51.660;5.616;2023-01-19T02:18:35;99751.09;;;0.60;100.00
64544;BME280;50936;51.660;5.616;2023-01-19T02:21:10;99745.03;;;0.56;100.00
64544;BME280;50936;51.660;5.616;2023-01-19T02:23:41;99735.44;;;0.54;100.00
64544;BME280;50936;51.660;5.616;2023-01-19T02:26:17;99742.03;;;0.45;100.00
64544;BME280;50936;51.660;5.616;2023-01-19T02:28:51;99740.00;;;0.31;100.00
64544;BME280;50936;51.660;5.616;2023-01-19T02:31:24;99740.47;;;0.21;100.00
64544;BME280;50936;51.660;5.616;2023-01-19T02:33:53;99751.28;;;0.16;100.00
64544;BME280;50936;51.660;5.616;2023-01-19T02:36:32;99758.47;;;0.14;100.00
64544;BME280;50936;51.660;5.616;2023-01-19T02:39:04;99755.03;;;0.12;100.00
64544;BME280;50936;51.660;5.616;2023-01-19T02:41:42;99754.00;;;0.14;100.00
64544;BME280;50936;51.660;5.616;2023-01-19T02:44:15;99753.16;;;0.14;100.00
64544;BME280;50936;51.660;5.616;2023-01-19T02:46:45;99759.59;;;0.08;100.00
64544;BME280;50936;51.660;5.616;2023-01-19T02:49:13;99754.56;;;0.02;100.00
64544;BME280;50936;51.660;5.616;2023-01-19T02:51:42;99766.03;;;0.03;100.00
64544;BME280;50936;51.660;5.616;2023-01-19T03:11:09;99774.53;;;0.11;100.00
64544;BME280;50936;51.660;5.616;2023-01-19T03:13:56;99781.56;;;0.12;100.00
64544;BME280;50936;51.660;5.616;2023-01-19T03:16:37;99783.31;;;0.13;100.00
64544;BME280;50936;51.660;5.616;2023-01-19T03:19:40;99790.44;;;0.11;100.00
64544;BME280;50936;51.660;5.616;2023-01-19T03:22:24;99791.53;;;0.07;100.00
64544;BME280;50936;51.660;5.616;2023-01-19T03:24:59;99794.44;;;0.01;100.00
64544;BME280;50936;51.660;5.616;2023-01-19T03:27:30;99806.13;;;-0.04;100.00
64544;BME280;50936;51.660;5.616;2023-01-19T03:30:08;99802.88;;;-0.10;100.00
64544;BME280;50936;51.660;5.616;2023-01-19T03:32:42;99816.19;;;-0.12;100.00
64544;BME280;50936;51.660;5.616;2023-01-19T03:35:21;99818.91;;;-0.13;100.00
64544;BME280;50936;51.660;5.616;2023-01-19T03:37:51;99818.91;;;-0.13;100.00
64544;BME280;50936;51.660;5.616;2023-01-19T03:40:23;99827.94;;;-0.17;100.00
64544;BME280;50936;51.660;5.616;2023-01-19T03:42:55;99832.63;;;-0.24;100.00
64544;BME280;50936;51.660;5.616;2023-01-19T03:45:24;99836.34;;;-0.28;100.00
64544;BME280;50936;51.660;5.616;2023-01-19T03:47:53;99840.03;;;-0.32;100.00
64544;BME280;50936;51.660;5.616;2023-01-19T03:50:26;99833.16;;;-0.36;100.00
64544;BME280;50936;51.660;5.616;2023-01-19T03:53:07;99827.84;;;-0.36;100.00
64544;BME280;50936;51.660;5.616;2023-01-19T03:55:41;99829.66;;;-0.39;100.00
64544;BME280;50936;51.660;5.616;2023-01-19T03:58:12;99827.94;;;-0.40;100.00
64544;BME280;50936;51.660;5.616;2023-01-19T04:00:39;99833.25;;;-0.40;100.00
64544;BME280;50936;51.660;5.616;2023-01-19T04:03:12;99850.88;;;-0.39;100.00
64544;BME280;50936;51.660;5.616;2023-01-19T04:05:40;99848.19;;;-0.37;100.00
64544;BME280;50936;51.660;5.616;2023-01-19T04:08:07;99849.97;;;-0.37;100.00
64544;BME280;50936;51.660;5.616;2023-01-19T04:10:35;99847.31;;;-0.37;100.00
64544;BME280;50936;51.660;5.616;2023-01-19T04:13:02;99850.88;;;-0.39;100.00
64544;BME280;50936;51.660;5.616;2023-01-19T04:15:30;99849.19;;;-0.40;100.00
64544;BME280;50936;51.660;5.616;2023-01-19T04:18:01;99848.31;;;-0.40;100.00
64544;BME280;50936;51.660;5.616;2023-01-19T04:20:28;99844.78;;;-0.41;100.00
64544;BME280;50936;51.660;5.616;2023-01-19T04:22:58;99836.81;;;-0.41;100.00
64544;BME280;50936;51.660;5.616;2023-01-19T04:25:27;99839.56;;;-0.42;100.00
64544;BME280;50936;51.660;5.616;2023-01-19T04:27:54;99851.88;;;-0.41;100.00
64544;BME280;50936;51.660;5.616;2023-01-19T04:30:24;99869.59;;;-0.42;100.00
64544;BME280;50936;51.660;5.616;2023-01-19T04:32:52;99866.94;;;-0.42;100.00
64544;BME280;50936;51.660;5.616;2023-01-19T04:35:21;99867.75;;;-0.40;100.00
64544;BME280;50936;51.660;5.616;2023-01-19T04:37:49;99870.41;;;-0.40;100.00
64544;BME280;50936;51.660;5.616;2023-01-19T04:40:16;99857.94;;;-0.37;100.00
64544;BME280;50936;51.660;5.616;2023-01-19T04:42:43;99854.44;;;-0.38;100.00
64544;BME280;50936;51.660;5.616;2023-01-19T04:45:12;99840.28;;;-0.39;100.00
64544;BME280;50936;51.660;5.616;2023-01-19T04:47:39;99836.72;;;-0.37;100.00
64544;BME280;50936;51.660;5.616;2023-01-19T04:50:09;99831.41;;;-0.37;100.00
64544;BME280;50936;51.660;5.616;2023-01-19T04:52:36;99820.69;;;-0.34;100.00
64544;BME280;50936;51.660;5.616;2023-01-19T04:55:04;99819.72;;;-0.33;100.00
64544;BME280;50936;51.660;5.616;2023-01-19T04:57:32;99816.97;;;-0.30;100.00
64544;BME280;50936;51.660;5.616;2023-01-19T04:59:59;99813.25;;;-0.26;100.00
64544;BME280;50936;51.660;5.616;2023-01-19T05:02:26;99799.88;;;-0.23;100.00
64544;BME280;50936;51.660;5.616;2023-01-19T05:04:53;99810.47;;;-0.23;100.00
64544;BME280;50936;51.660;5.616;2023-01-19T05:07:20;99803.25;;;-0.20;100.00
64544;BME280;50936;51.660;5.616;2023-01-19T05:09:47;99816.47;;;-0.18;100.00
64544;BME280;50936;51.660;5.616;2023-01-19T05:12:14;99819.91;;;-0.16;100.00
64544;BME280;50936;51.660;5.616;2023-01-19T05:14:42;99827.88;;;-0.16;100.00
64544;BME280;50936;51.660;5.616;2023-01-19T05:17:09;99829.59;;;-0.15;100.00
64544;BME280;50936;51.660;5.616;2023-01-19T05:19:37;99834.78;;;-0.12;100.00
64544;BME280;50936;51.660;5.616;2023-01-19T05:22:05;99833.88;;;-0.11;100.00
64544;BME280;50936;51.660;5.616;2023-01-19T05:24:32;99824.97;;;-0.10;100.00
64544;BME280;50936;51.660;5.616;2023-01-19T05:27:00;99827.50;;;-0.07;100.00
64544;BME280;50936;51.660;5.616;2023-01-19T05:29:27;99838.91;;;-0.05;100.00
64544;BME280;50936;51.660;5.616;2023-01-19T05:31:54;99835.34;;;-0.04;100.00
64544;BME280;50936;51.660;5.616;2023-01-19T05:34:21;99851.25;;;-0.04;100.00
64544;BME280;50936;51.660;5.616;2023-01-19T05:36:48;99851.25;;;-0.04;100.00
64544;BME280;50936;51.660;5.616;2023-01-19T05:39:14;99861.88;;;-0.04;100.00
64544;BME280;50936;51.660;5.616;2023-01-19T05:41:41;99866.38;;;-0.06;100.00
64544;BME280;50936;51.660;5.616;2023-01-19T05:44:11;99869.03;;;-0.06;100.00
64544;BME280;50936;51.660;5.616;2023-01-19T05:46:39;99867.31;;;-0.07;100.00
64544;BME280;50936;51.660;5.616;2023-01-19T05:49:06;99869.03;;;-0.06;100.00
64544;BME280;50936;51.660;5.616;2023-01-19T05:51:37;99870.81;;;-0.06;100.00
64544;BME280;50936;51.660;5.616;2023-01-19T05:54:12;99870.81;;;-0.06;100.00
64544;BME280;50936;51.660;5.616;2023-01-19T05:56:41;99883.25;;;-0.07;100.00
64544;BME280;50936;51.660;5.616;2023-01-19T05:59:09;99881.38;;;-0.05;100.00
64544;BME280;50936;51.660;5.616;2023-01-19T06:01:36;99883.13;;;-0.04;100.00
64544;BME280;50936;51.660;5.616;2023-01-19T06:04:07;99890.13;;;-0.03;100.00
64544;BME280;50936;51.660;5.616;2023-01-19T06:06:34;99902.50;;;-0.02;100.00
64544;BME280;50936;51.660;5.616;2023-01-19T06:09:01;99893.59;;;-0.01;100.00
64544;BME280;50936;51.660;5.616;2023-01-19T06:11:28;99896.19;;;0.01;100.00
64544;BME280;50936;51.660;5.616;2023-01-19T06:13:54;99890.81;;;0.03;100.00
64544;BME280;50936;51.660;5.616;2023-01-19T06:16:21;99894.34;;;0.03;100.00
64544;BME280;50936;51.660;5.616;2023-01-19T06:18:48;99894.22;;;0.06;100.00
64544;BME280;50936;51.660;5.616;2023-01-19T06:21:15;99902.84;;;0.11;100.00
64544;BME280;50936;51.660;5.616;2023-01-19T06:23:42;99904.63;;;0.11;100.00
64544;BME280;50936;51.660;5.616;2023-01-19T06:26:09;99903.72;;;0.12;100.00
64544;BME280;50936;51.660;5.616;2023-01-19T06:28:36;99910.63;;;0.16;100.00
64544;BME280;50936;51.660;5.616;2023-01-19T06:31:03;99917.47;;;0.22;100.00
64544;BME280;50936;51.660;5.616;2023-01-19T06:33:30;99925.38;;;0.23;100.00
64544;BME280;50936;51.660;5.616;2023-01-19T06:35:57;99919.16;;;0.24;100.00
64544;BME280;50936;51.660;5.616;2023-01-19T06:38:24;99933.22;;;0.26;100.00
64544;BME280;50936;51.660;5.616;2023-01-19T06:40:56;99935.09;;;0.24;100.00
64544;BME280;50936;51.660;5.616;2023-01-19T06:43:25;99943.06;;;0.24;100.00
64544;BME280;50936;51.660;5.616;2023-01-19T06:45:52;99947.41;;;0.25;100.00
64544;BME280;50936;51.660;5.616;2023-01-19T06:48:20;99937.59;;;0.27;100.00
64544;BME280;50936;51.660;5.616;2023-01-19T06:50:48;99945.56;;;0.27;100.00
64544;BME280;50936;51.660;5.616;2023-01-19T06:53:16;99945.56;;;0.27;100.00
64544;BME280;50936;51.660;5.616;2023-01-19T06:55:45;99956.13;;;0.29;100.00
64544;BME280;50936;51.660;5.616;2023-01-19T06:58:12;99951.81;;;0.26;100.00
64544;BME280;50936;51.660;5.616;2023-01-19T07:00:39;99959.78;;;0.26;100.00
64544;BME280;50936;51.660;5.616;2023-01-19T07:03:06;99961.50;;;0.27;100.00
64544;BME280;50936;51.660;5.616;2023-01-19T07:05:35;99968.56;;;0.28;100.00
64544;BME280;50936;51.660;5.616;2023-01-19T07:08:02;99972.13;;;0.27;100.00
64544;BME280;50936;51.660;5.616;2023-01-19T07:10:30;99970.25;;;0.29;100.00
64544;BME280;50936;51.660;5.616;2023-01-19T07:13:17;99974.59;;;0.32;100.00
64544;BME280;50936;51.660;5.616;2023-01-19T07:15:43;99977.13;;;0.35;100.00
64544;BME280;50936;51.660;5.616;2023-01-19T07:18:10;99981.63;;;0.33;100.00
64544;BME280;50936;51.660;5.616;2023-01-19T07:20:37;99978.91;;;0.34;100.00
64544;BME280;50936;51.660;5.616;2023-01-19T07:23:04;99986.81;;;0.36;100.00
64544;BME280;50936;51.660;5.616;2023-01-19T07:25:31;99985.97;;;0.35;100.00
64544;BME280;50936;51.660;5.616;2023-01-19T07:27:58;99991.16;;;0.38;100.00
64544;BME280;50936;51.660;5.616;2023-01-19T07:30:26;99989.31;;;0.41;100.00
64544;BME280;50936;51.660;5.616;2023-01-19T07:32:54;99994.66;;;0.39;100.00
64544;BME280;50936;51.660;5.616;2023-01-19T07:35:24;99998.97;;;0.42;100.00
64544;BME280;50936;51.660;5.616;2023-01-19T07:37:51;99999.78;;;0.44;100.00
64544;BME280;50936;51.660;5.616;2023-01-19T07:40:18;100006.03;;;0.43;100.00
64544;BME280;50936;51.660;5.616;2023-01-19T07:42:49;100004.19;;;0.45;100.00
64544;BME280;50936;51.660;5.616;2023-01-19T07:45:19;100002.25;;;0.48;100.00
64544;BME280;50936;51.660;5.616;2023-01-19T07:47:47;100006.47;;;0.54;100.00
64544;BME280;50936;51.660;5.616;2023-01-19T07:50:16;100021.28;;;0.60;100.00
64544;BME280;50936;51.660;5.616;2023-01-19T07:52:46;100017.56;;;0.64;100.00
64544;BME280;50936;51.660;5.616;2023-01-19T07:55:19;100027.06;;;0.69;100.00
64544;BME280;50936;51.660;5.616;2023-01-19T07:57:50;100031.34;;;0.73;100.00
64544;BME280;50936;51.660;5.616;2023-01-19T08:00:18;100033.00;;;0.76;100.00
64544;BME280;50936;51.660;5.616;2023-01-19T08:02:47;100041.84;;;0.76;100.00
64544;BME280;50936;51.660;5.616;2023-01-19T08:05:18;100042.78;;;0.75;100.00
64544;BME280;50936;51.660;5.616;2023-01-19T08:07:46;100048.94;;;0.76;100.00
64544;BME280;50936;51.660;5.616;2023-01-19T08:10:16;100057.84;;;0.75;100.00
64544;BME280;50936;51.660;5.616;2023-01-19T08:12:43;100047.19;;;0.75;100.00
64544;BME280;50936;51.660;5.616;2023-01-19T08:15:10;100052.53;;;0.75;100.00
64544;BME280;50936;51.660;5.616;2023-01-19T08:17:37;100056.00;;;0.77;100.00
64544;BME280;50936;51.660;5.616;2023-01-19T08:20:05;100065.75;;;0.76;100.00
64544;BME280;50936;51.660;5.616;2023-01-19T08:22:34;100070.22;;;0.76;100.00
64544;BME280;50936;51.660;5.616;2023-01-19T08:25:01;100064.16;;;0.72;100.00
64544;BME280;50936;51.660;5.616;2023-01-19T08:27:27;100074.84;;;0.71;100.00
64544;BME280;50936;51.660;5.616;2023-01-19T08:29:56;100081.16;;;0.68;100.00
64544;BME280;50936;51.660;5.616;2023-01-19T08:32:24;100087.41;;;0.67;100.00
64544;BME280;50936;51.660;5.616;2023-01-19T08:34:51;100098.97;;;0.66;100.00
64544;BME280;50936;51.660;5.616;2023-01-19T08:37:18;100099.63;;;0.71;100.00
64544;BME280;50936;51.660;5.616;2023-01-19T08:39:44;100106.31;;;0.82;100.00
64544;BME280;50936;51.660;5.616;2023-01-19T08:42:11;100109.53;;;0.90;100.00
64544;BME280;50936;51.660;5.616;2023-01-19T08:44:38;100106.56;;;0.98;100.00
64544;BME280;50936;51.660;5.616;2023-01-19T08:47:22;100128.50;;;1.03;100.00
64544;BME280;50936;51.660;5.616;2023-01-19T08:49:49;100118.66;;;1.05;100.00
64544;BME280;50936;51.660;5.616;2023-01-19T08:52:16;100114.09;;;1.08;100.00
64544;BME280;50936;51.660;5.616;2023-01-19T08:54:42;100114.88;;;1.10;100.00
64544;BME280;50936;51.660;5.616;2023-01-19T08:57:09;100117.53;;;1.10;100.00
64544;BME280;50936;51.660;5.616;2023-01-19T08:59:36;100112.34;;;1.07;100.00
64544;BME280;50936;51.660;5.616;2023-01-19T09:02:03;100119.53;;;1.05;100.00
64544;BME280;50936;51.660;5.616;2023-01-19T09:04:30;100134.75;;;1.02;100.00
64544;BME280;50936;51.660;5.616;2023-01-19T09:07:00;100128.56;;;1.01;100.00
64544;BME280;50936;51.660;5.616;2023-01-19T09:09:27;100135.75;;;0.99;100.00
64544;BME280;50936;51.660;5.616;2023-01-19T09:11:54;100141.19;;;0.96;100.00
64544;BME280;50936;51.660;5.616;2023-01-19T09:14:21;100143.09;;;0.92;100.00
64544;BME280;50936;51.660;5.616;2023-01-19T09:16:48;100147.72;;;0.87;100.00
64544;BME280;50936;51.660;5.616;2023-01-19T09:19:15;100150.59;;;0.83;100.00
64544;BME280;50936;51.660;5.616;2023-01-19T09:21:42;100155.22;;;0.77;100.00
64544;BME280;50936;51.660;5.616;2023-01-19T09:24:09;100163.31;;;0.74;100.00
64544;BME280;50936;51.660;5.616;2023-01-19T09:26:36;100157.19;;;0.72;100.00
64544;BME280;50936;51.660;5.616;2023-01-19T09:29:04;100150.81;;;0.76;100.00
64544;BME280;50936;51.660;5.616;2023-01-19T09:31:31;100156.66;;;0.86;100.00
64544;BME280;50936;51.660;5.616;2023-01-19T09:33:58;100155.38;;;0.95;100.00
64544;BME280;50936;51.660;5.616;2023-01-19T09:36:25;100157.88;;;1.00;100.00
64544;BME280;50936;51.660;5.616;2023-01-19T09:38:52;100159.72;;;0.98;100.00
64544;BME280;50936;51.660;5.616;2023-01-19T09:41:20;100175.69;;;0.98;100.00
64544;BME280;50936;51.660;5.616;2023-01-19T09:43:58;100171.22;;;0.98;100.00
64544;BME280;50936;51.660;5.616;2023-01-19T09:46:37;100176.53;;;0.98;100.00
64544;BME280;50936;51.660;5.616;2023-01-19T09:49:21;100180.13;;;0.97;100.00
64544;BME280;50936;51.660;5.616;2023-01-19T09:51:57;100180.13;;;0.97;100.00
64544;BME280;50936;51.660;5.616;2023-01-19T09:57:22;100185.31;;;1.00;100.00
64544;BME280;50936;51.660;5.616;2023-01-19T09:59:50;100187.88;;;1.03;100.00
64544;BME280;50936;51.660;5.616;2023-01-19T10:05:01;100192.94;;;1.09;100.00
64544;BME280;50936;51.660;5.616;2023-01-19T10:11:36;100208.81;;;1.11;100.00
64544;BME280;50936;51.660;5.616;2023-01-19T10:14:35;100208.56;;;1.17;100.00
64544;BME280;50936;51.660;5.616;2023-01-19T10:17:18;100209.81;;;1.30;100.00
64544;BME280;50936;51.660;5.616;2023-01-19T10:20:20;100206.84;;;1.38;100.00
64544;BME280;50936;51.660;5.616;2023-01-19T10:22:54;100203.09;;;1.42;100.00
64544;BME280;50936;51.660;5.616;2023-01-19T10:25:25;100203.91;;;1.44;100.00
64544;BME280;50936;51.660;5.616;2023-01-19T10:27:53;100208.44;;;1.42;100.00
64544;BME280;50936;51.660;5.616;2023-01-19T10:30:22;100215.22;;;1.49;100.00
64544;BME280;50936;51.660;5.616;2023-01-19T10:32:52;100205.66;;;1.66;100.00
64544;BME280;50936;51.660;5.616;2023-01-19T10:35:22;100216.97;;;1.91;100.00
64544;BME280;50936;51.660;5.616;2023-01-19T10:38:00;100214.03;;;2.18;100.00
64544;BME280;50936;51.660;5.616;2023-01-19T10:40:51;100215.63;;;2.22;100.00
64544;BME280;50936;51.660;5.616;2023-01-19T10:46:05;100211.50;;;2.15;100.00
64544;BME280;50936;51.660;5.616;2023-01-19T10:48:37;100213.50;;;2.10;100.00
64544;BME280;50936;51.660;5.616;2023-01-19T10:51:08;100209.38;;;2.03;100.00
64544;BME280;50936;51.660;5.616;2023-01-19T10:53:36;100218.38;;;2.00;100.00
64544;BME280;50936;51.660;5.616;2023-01-19T10:56:11;100212.03;;;2.03;100.00
64544;BME280;50936;51.660;5.616;2023-01-19T10:58:41;100207.50;;;2.05;100.00
64544;BME280;50936;51.660;5.616;2023-01-19T11:01:24;100210.03;;;2.08;100.00
64544;BME280;50936;51.660;5.616;2023-01-19T11:03:53;100207.63;;;2.22;100.00
64544;BME280;50936;51.660;5.616;2023-01-19T11:06:27;100206.72;;;2.42;100.00
64544;BME280;50936;51.660;5.616;2023-01-19T11:09:10;100208.75;;;2.56;100.00
64544;BME280;50936;51.660;5.616;2023-01-19T11:11:49;100215.09;;;2.73;100.00
64544;BME280;50936;51.660;5.616;2023-01-19T11:14:33;100215.16;;;2.90;100.00
64544;BME280;50936;51.660;5.616;2023-01-19T11:17:00;100219.31;;;3.15;100.00
64544;BME280;50936;51.660;5.616;2023-01-19T11:19:29;100218.91;;;3.41;100.00
64544;BME280;50936;51.660;5.616;2023-01-19T11:22:19;100223.31;;;3.60;100.00
64544;BME280;50936;51.660;5.616;2023-01-19T11:25:00;100221.22;;;3.66;100.00
64544;BME280;50936;51.660;5.616;2023-01-19T11:27:31;100218.22;;;3.73;100.00
64544;BME280;50936;51.660;5.616;2023-01-19T11:30:17;100218.94;;;3.76;100.00
64544;BME280;50936;51.660;5.616;2023-01-19T11:32:48;100216.72;;;3.84;100.00
64544;BME280;50936;51.660;5.616;2023-01-19T11:35:35;100213.66;;;3.92;100.00
64544;BME280;50936;51.660;5.616;2023-01-19T11:38:17;100219.06;;;4.08;100.00
64544;BME280;50936;51.660;5.616;2023-01-19T11:40:54;100207.59;;;4.06;100.00
64544;BME280;50936;51.660;5.616;2023-01-19T11:43:27;100206.47;;;4.10;100.00
64544;BME280;50936;51.660;5.616;2023-01-19T11:46:14;100202.38;;;4.20;100.00
64544;BME280;50936;51.660;5.616;2023-01-19T11:48:54;100205.34;;;4.32;100.00
64544;BME280;50936;51.660;5.616;2023-01-19T11:54:44;100211.59;;;4.48;100.00
64544;BME280;50936;51.660;5.616;2023-01-19T11:57:17;100215.38;;;4.44;100.00
64544;BME280;50936;51.660;5.616;2023-01-19T11:59:45;100208.81;;;4.50;100.00
64544;BME280;50936;51.660;5.616;2023-01-19T12:02:28;100205.03;;;4.38;100.00
64544;BME280;50936;51.660;5.616;2023-01-19T12:05:05;100201.53;;;4.36;100.00
64544;BME280;50936;51.660;5.616;2023-01-19T12:07:39;100201.66;;;4.34;100.00
64544;BME280;50936;51.660;5.616;2023-01-19T12:10:27;100196.88;;;4.39;100.00
64544;BME280;50936;51.660;5.616;2023-01-19T12:12:56;100208.63;;;4.37;100.00
64544;BME280;50936;51.660;5.616;2023-01-19T12:15:35;100206.06;;;4.51;100.00
64544;BME280;50936;51.660;5.616;2023-01-19T12:18:15;100208.41;;;4.57;100.00
64544;BME280;50936;51.660;5.616;2023-01-19T12:20:50;100215.72;;;4.54;100.00
64544;BME280;50936;51.660;5.616;2023-01-19T12:23:42;100209.69;;;4.50;100.00
64544;BME280;50936;51.660;5.616;2023-01-19T12:26:29;100204.53;;;4.47;100.00
64544;BME280;50936;51.660;5.616;2023-01-19T12:29:17;100213.97;;;4.37;100.00
64544;BME280;50936;51.660;5.616;2023-01-19T12:34:40;100211.53;;;4.32;100.00
64544;BME280;50936;51.660;5.616;2023-01-19T12:37:35;100207.78;;;4.36;100.00
64544;BME280;50936;51.660;5.616;2023-01-19T12:40:20;100209.88;;;4.47;100.00
64544;BME280;50936;51.660;5.616;2023-01-19T12:42:58;100205.56;;;4.60;100.00
64544;BME280;50936;51.660;5.616;2023-01-19T12:45:37;100212.22;;;4.85;100.00
64544;BME280;50936;51.660;5.616;2023-01-19T12:48:22;100205.25;;;4.98;100.00
64544;BME280;50936;51.660;5.616;2023-01-19T12:50:50;100204.50;;;4.96;100.00
64544;BME280;50936;51.660;5.616;2023-01-19T12:53:19;100211.28;;;4.86;100.00
64544;BME280;50936;51.660;5.616;2023-01-19T12:55:57;100208.16;;;4.78;100.00
64544;BME280;50936;51.660;5.616;2023-01-19T12:58:26;100214.84;;;4.71;100.00
64544;BME280;50936;51.660;5.616;2023-01-19T13:01:32;100220.97;;;4.73;100.00
64544;BME280;50936;51.660;5.616;2023-01-19T13:04:29;100223.91;;;4.84;100.00
64544;BME280;50936;51.660;5.616;2023-01-19T13:09:35;100209.97;;;5.25;100.00
64544;BME280;50936;51.660;5.616;2023-01-19T13:14:41;100218.31;;;5.51;100.00
64544;BME280;50936;51.660;5.616;2023-01-19T13:17:20;100210.16;;;5.68;100.00
64544;BME280;50936;51.660;5.616;2023-01-19T13:20:13;100214.59;;;5.84;100.00
64544;BME280;50936;51.660;5.616;2023-01-19T13:26:05;100215.59;;;5.97;100.00
64544;BME280;50936;51.660;5.616;2023-01-19T13:28:43;100213.28;;;5.91;100.00
64544;BME280;50936;51.660;5.616;2023-01-19T13:31:13;100214.78;;;5.81;100.00
64544;BME280;50936;51.660;5.616;2023-01-19T13:33:54;100213.06;;;5.79;100.00
64544;BME280;50936;51.660;5.616;2023-01-19T13:36:34;100214.97;;;5.77;100.00
64544;BME280;50936;51.660;5.616;2023-01-19T13:39:05;100214.19;;;5.75;100.00
64544;BME280;50936;51.660;5.616;2023-01-19T13:41:44;100217.47;;;5.50;100.00
64544;BME280;50936;51.660;5.616;2023-01-19T13:44:22;100216.41;;;5.53;100.00
64544;BME280;50936;51.660;5.616;2023-01-19T13:46:53;100219.72;;;5.72;100.00
64544;BME280;50936;51.660;5.616;2023-01-19T13:49:28;100216.72;;;5.93;100.00
64544;BME280;50936;51.660;5.616;2023-01-19T14:05:35;100228.31;;;5.63;100.00
64544;BME280;50936;51.660;5.616;2023-01-19T14:16:05;100233.00;;;5.44;100.00
64544;BME280;50936;51.660;5.616;2023-01-19T14:18:34;100233.75;;;5.31;100.00
64544;BME280;50936;51.660;5.616;2023-01-19T14:21:05;100234.94;;;5.10;100.00
64544;BME280;50936;51.660;5.616;2023-01-19T14:26:45;100242.75;;;4.32;100.00